sensor_id;sensor_type;location;lat;lon;timestamp;pressure;altitude;pressure_sealevel;temperature;humidity
49030;BME280;43337;52.070;4.508;2024-03-08T00:00:31;102030.25;;;3.01;100.00
49030;BME280;43337;52.070;4.508;2024-03-08T00:02:58;102027.59;;;3.00;100.00
49030;BME280;43337;52.070;4.508;2024-03-08T00:05:24;102032.84;;;3.01;100.00
49030;BME280;43337;52.070;4.508;2024-03-08T00:07:49;102038.00;;;3.00;100.00
49030;BME280;43337;52.070;4.508;2024-03-08T00:10:14;102034.53;;;2.99;100.00
49030;BME280;43337;52.070;4.508;2024-03-08T00:12:41;102020.66;;;2.99;100.00
49030;BME280;43337;52.070;4.508;2024-03-08T00:15:08;102016.31;;;2.94;100.00
49030;BME280;43337;52.070;4.508;2024-03-08T00:17:34;102031.94;;;2.98;100.00
49030;BME280;43337;52.070;4.508;2024-03-08T00:20:01;102014.53;;;2.92;100.00
49030;BME280;43337;52.070;4.508;2024-03-08T00:22:28;102020.63;;;2.96;100.00
49030;BME280;43337;52.070;4.508;2024-03-08T00:24:55;102008.47;;;2.90;100.00
49030;BME280;43337;52.070;4.508;2024-03-08T00:27:21;102019.78;;;2.95;100.00
49030;BME280;43337;52.070;4.508;2024-03-08T00:29:47;102009.34;;;2.92;100.00
49030;BME280;43337;52.070;4.508;2024-03-08T00:32:12;102004.09;;;2.87;100.00
49030;BME280;43337;52.070;4.508;2024-03-08T00:34:38;102004.16;;;2.93;100.00
49030;BME280;43337;52.070;4.508;2024-03-08T00:37:04;101997.16;;;2.86;100.00
49030;BME280;43337;52.070;4.508;2024-03-08T00:39:29;102007.59;;;2.91;100.00
49030;BME280;43337;52.070;4.508;2024-03-08T00:41:55;102000.66;;;2.88;100.00
49030;BME280;43337;52.070;4.508;2024-03-08T00:44:20;101971.91;;;2.72;100.00
49030;BME280;43337;52.070;4.508;2024-03-08T00:46:46;102001.50;;;2.87;100.00
49030;BME280;43337;52.070;4.508;2024-03-08T00:49:13;102002.38;;;2.86;100.00
49030;BME280;43337;52.070;4.508;2024-03-08T00:51:38;101991.94;;;2.83;100.00
49030;BME280;43337;52.070;4.508;2024-03-08T00:54:03;101985.84;;;2.78;100.00
49030;BME280;43337;52.070;4.508;2024-03-08T00:56:29;101980.59;;;2.74;100.00
49030;BME280;43337;52.070;4.508;2024-03-08T00:58:54;101997.09;;;2.77;100.00
49030;BME280;43337;52.070;4.508;2024-03-08T01:01:20;101983.16;;;2.72;100.00
49030;BME280;43337;52.070;4.508;2024-03-08T01:03:45;101984.03;;;2.71;100.00
49030;BME280;43337;52.070;4.508;2024-03-08T01:06:11;101969.22;;;2.61;100.00
49030;BME280;43337;52.070;4.508;2024-03-08T01:08:37;101982.28;;;2.68;100.00
49030;BME280;43337;52.070;4.508;2024-03-08T01:11:04;101976.19;;;2.63;100.00
49030;BME280;43337;52.070;4.508;2024-03-08T01:13:30;101970.97;;;2.62;100.00
49030;BME280;43337;52.070;4.508;2024-03-08T01:15:55;101958.81;;;2.58;100.00
49030;BME280;43337;52.070;4.508;2024-03-08T01:18:21;101945.72;;;2.49;100.00
49030;BME280;43337;52.070;4.508;2024-03-08T01:20:46;101953.53;;;2.53;100.00
49030;BME280;43337;52.070;4.508;2024-03-08T01:23:12;101949.22;;;2.52;100.00
49030;BME280;43337;52.070;4.508;2024-03-08T01:25:37;101954.41;;;2.52;100.00
49030;BME280;43337;52.070;4.508;2024-03-08T01:28:03;101948.31;;;2.49;100.00
49030;BME280;43337;52.070;4.508;2024-03-08T01:30:29;101938.75;;;2.44;100.00
49030;BME280;43337;52.070;4.508;2024-03-08T01:32:54;101949.19;;;2.46;100.00
49030;BME280;43337;52.070;4.508;2024-03-08T01:35:20;101941.34;;;2.43;100.00
49030;BME280;43337;52.070;4.508;2024-03-08T01:37:47;101933.47;;;2.35;100.00
49030;BME280;43337;52.070;4.508;2024-03-08T01:40:14;101935.25;;;2.39;100.00
49030;BME280;43337;52.070;4.508;2024-03-08T01:42:40;101937.81;;;2.36;100.00
49030;BME280;43337;52.070;4.508;2024-03-08T01:45:06;101943.00;;;2.35;100.00
49030;BME280;43337;52.070;4.508;2024-03-08T01:47:32;101934.31;;;2.31;100.00
49030;BME280;43337;52.070;4.508;2024-03-08T01:49:59;101927.34;;;2.30;100.00
49030;BME280;43337;52.070;4.508;2024-03-08T01:52:32;101922.16;;;2.27;100.00
49030;BME280;43337;52.070;4.508;2024-03-08T01:55:02;101916.94;;;2.24;100.00
49030;BME280;43337;52.070;4.508;2024-03-08T01:57:31;101916.03;;;2.20;100.00
49030;BME280;43337;52.070;4.508;2024-03-08T01:59:59;101909.03;;;2.15;100.00
49030;BME280;43337;52.070;4.508;2024-03-08T02:02:32;101916.00;;;2.19;100.00
49030;BME280;43337;52.070;4.508;2024-03-08T02:04:57;101911.63;;;2.15;100.00
49030;BME280;43337;52.070;4.508;2024-03-08T02:07:23;101907.31;;;2.15;100.00
49030;BME280;43337;52.070;4.508;2024-03-08T02:09:48;101915.94;;;2.13;100.00
49030;BME280;43337;52.070;4.508;2024-03-08T02:12:13;101915.91;;;2.10;100.00
49030;BME280;43337;52.070;4.508;2024-03-08T02:14:39;101910.72;;;2.08;100.00
49030;BME280;43337;52.070;4.508;2024-03-08T02:17:05;101906.34;;;2.04;100.00
49030;BME280;43337;52.070;4.508;2024-03-08T02:19:30;101908.94;;;2.04;100.00
49030;BME280;43337;52.070;4.508;2024-03-08T02:21:56;101894.19;;;2.02;100.00
49030;BME280;43337;52.070;4.508;2024-03-08T02:24:22;101890.69;;;1.97;100.00
49030;BME280;43337;52.070;4.508;2024-03-08T02:26:48;101884.59;;;1.93;100.00
49030;BME280;43337;52.070;4.508;2024-03-08T02:29:14;101885.44;;;1.92;100.00
49030;BME280;43337;52.070;4.508;2024-03-08T02:31:40;101871.56;;;1.88;100.00
49030;BME280;43337;52.070;4.508;2024-03-08T02:34:05;101879.38;;;1.90;100.00
49030;BME280;43337;52.070;4.508;2024-03-08T02:36:30;101854.16;;;1.78;100.00
49030;BME280;43337;52.070;4.508;2024-03-08T02:39:01;101875.00;;;1.87;100.00
49030;BME280;43337;52.070;4.508;2024-03-08T02:41:26;101868.94;;;1.85;100.00
49030;BME280;43337;52.070;4.508;2024-03-08T02:43:52;101865.41;;;1.80;100.00
49030;BME280;43337;52.070;4.508;2024-03-08T02:46:17;101855.00;;;1.79;100.00
49030;BME280;43337;52.070;4.508;2024-03-08T02:48:43;101865.41;;;1.80;100.00
49030;BME280;43337;52.070;4.508;2024-03-08T02:51:08;101862.81;;;1.77;100.00
49030;BME280;43337;52.070;4.508;2024-03-08T02:53:35;101852.38;;;1.76;100.00
49030;BME280;43337;52.070;4.508;2024-03-08T02:56:01;101844.50;;;1.66;100.00
49030;BME280;43337;52.070;4.508;2024-03-08T02:58:26;101846.25;;;1.69;100.00
49030;BME280;43337;52.070;4.508;2024-03-08T03:00:52;101844.50;;;1.66;100.00
49030;BME280;43337;52.070;4.508;2024-03-08T03:03:17;101834.91;;;1.61;100.00
49030;BME280;43337;52.070;4.508;2024-03-08T03:05:42;101846.25;;;1.66;100.00
49030;BME280;43337;52.070;4.508;2024-03-08T03:08:09;101841.84;;;1.60;100.00
49030;BME280;43337;52.070;4.508;2024-03-08T03:10:35;101840.97;;;1.60;100.00
49030;BME280;43337;52.070;4.508;2024-03-08T03:13:01;101833.13;;;1.54;100.00
49030;BME280;43337;52.070;4.508;2024-03-08T03:15:26;101838.34;;;1.57;100.00
49030;BME280;43337;52.070;4.508;2024-03-08T03:17:51;101829.66;;;1.50;100.00
49030;BME280;43337;52.070;4.508;2024-03-08T03:20:17;101826.16;;;1.50;100.00
49030;BME280;43337;52.070;4.508;2024-03-08T03:22:48;101832.19;;;1.49;100.00
49030;BME280;43337;52.070;4.508;2024-03-08T03:25:20;101819.19;;;1.44;100.00
49030;BME280;43337;52.070;4.508;2024-03-08T03:27:59;101827.88;;;1.48;100.00
49030;BME280;43337;52.070;4.508;2024-03-08T03:30:25;101814.84;;;1.43;100.00
49030;BME280;43337;52.070;4.508;2024-03-08T03:32:59;101812.19;;;1.38;100.00
49030;BME280;43337;52.070;4.508;2024-03-08T03:35:26;101814.81;;;1.40;100.00
49030;BME280;43337;52.070;4.508;2024-03-08T03:37:51;101799.25;;;1.40;100.00
49030;BME280;43337;52.070;4.508;2024-03-08T03:40:28;101801.78;;;1.34;100.00
49030;BME280;43337;52.070;4.508;2024-03-08T03:42:54;101807.00;;;1.35;100.00
49030;BME280;43337;52.070;4.508;2024-03-08T03:45:19;101804.34;;;1.31;100.00
49030;BME280;43337;52.070;4.508;2024-03-08T03:47:45;101800.03;;;1.34;100.00
49030;BME280;43337;52.070;4.508;2024-03-08T03:50:11;101786.16;;;1.28;100.00
49030;BME280;43337;52.070;4.508;2024-03-08T03:52:36;101803.50;;;1.32;100.00
49030;BME280;43337;52.070;4.508;2024-03-08T03:55:01;101786.97;;;1.27;100.00
49030;BME280;43337;52.070;4.508;2024-03-08T03:57:29;101789.56;;;1.27;100.00
49030;BME280;43337;52.070;4.508;2024-03-08T03:59:55;101791.34;;;1.29;100.00
49030;BME280;43337;52.070;4.508;2024-03-08T04:02:20;101794.81;;;1.28;100.00
49030;BME280;43337;52.070;4.508;2024-03-08T04:04:47;101785.28;;;1.27;100.00
49030;BME280;43337;52.070;4.508;2024-03-08T04:07:13;101786.16;;;1.28;100.00
49030;BME280;43337;52.070;4.508;2024-03-08T04:09:38;101764.41;;;1.18;100.00
49030;BME280;43337;52.070;4.508;2024-03-08T04:12:04;101772.28;;;1.24;100.00
49030;BME280;43337;52.070;4.508;2024-03-08T04:14:29;101774.00;;;1.25;100.00
49030;BME280;43337;52.070;4.508;2024-03-08T04:16:55;101776.59;;;1.24;100.00
49030;BME280;43337;52.070;4.508;2024-03-08T04:19:20;101769.69;;;1.24;100.00
49030;BME280;43337;52.070;4.508;2024-03-08T04:21:45;101764.47;;;1.22;100.00
49030;BME280;43337;52.070;4.508;2024-03-08T04:24:12;101769.66;;;1.22;100.00
49030;BME280;43337;52.070;4.508;2024-03-08T04:26:37;101765.31;;;1.21;100.00
49030;BME280;43337;52.070;4.508;2024-03-08T04:29:03;101768.78;;;1.20;100.00
49030;BME280;43337;52.070;4.508;2024-03-08T04:31:28;101769.59;;;1.18;100.00
49030;BME280;43337;52.070;4.508;2024-03-08T04:33:56;101762.69;;;1.18;100.00
49030;BME280;43337;52.070;4.508;2024-03-08T04:36:21;101766.16;;;1.17;100.00
49030;BME280;43337;52.070;4.508;2024-03-08T04:38:47;101766.16;;;1.17;100.00
49030;BME280;43337;52.070;4.508;2024-03-08T04:41:12;101765.28;;;1.17;100.00
49030;BME280;43337;52.070;4.508;2024-03-08T04:43:38;101761.78;;;1.13;100.00
49030;BME280;43337;52.070;4.508;2024-03-08T04:46:04;101760.06;;;1.14;100.00
49030;BME280;43337;52.070;4.508;2024-03-08T04:48:30;101760.91;;;1.14;100.00
49030;BME280;43337;52.070;4.508;2024-03-08T04:50:56;101766.09;;;1.14;100.00
49030;BME280;43337;52.070;4.508;2024-03-08T04:53:21;101760.00;;;1.09;100.00
49030;BME280;43337;52.070;4.508;2024-03-08T04:55:47;101760.88;;;1.10;100.00
49030;BME280;43337;52.070;4.508;2024-03-08T04:58:12;101757.34;;;1.03;100.00
49030;BME280;43337;52.070;4.508;2024-03-08T05:00:37;101752.19;;;1.06;100.00
49030;BME280;43337;52.070;4.508;2024-03-08T05:03:03;101750.47;;;1.05;100.00
49030;BME280;43337;52.070;4.508;2024-03-08T05:05:30;101741.78;;;1.02;100.00
49030;BME280;43337;52.070;4.508;2024-03-08T05:07:55;101753.00;;;1.02;100.00
49030;BME280;43337;52.070;4.508;2024-03-08T05:10:21;101728.72;;;0.94;100.00
49030;BME280;43337;52.070;4.508;2024-03-08T05:12:47;101741.72;;;0.98;100.00
49030;BME280;43337;52.070;4.508;2024-03-08T05:15:12;101737.34;;;0.93;100.00
49030;BME280;43337;52.070;4.508;2024-03-08T05:17:37;101740.00;;;0.97;100.00
49030;BME280;43337;52.070;4.508;2024-03-08T05:20:05;101731.28;;;0.91;100.00
49030;BME280;43337;52.070;4.508;2024-03-08T05:22:33;101724.34;;;0.90;100.00
49030;BME280;43337;52.070;4.508;2024-03-08T05:24:58;101731.25;;;0.89;100.00
49030;BME280;43337;52.070;4.508;2024-03-08T05:27:24;101728.66;;;0.89;100.00
49030;BME280;43337;52.070;4.508;2024-03-08T05:29:49;101719.09;;;0.82;100.00
49030;BME280;43337;52.070;4.508;2024-03-08T05:32:14;101715.59;;;0.80;100.00
49030;BME280;43337;52.070;4.508;2024-03-08T05:34:40;101735.53;;;0.87;100.00
49030;BME280;43337;52.070;4.508;2024-03-08T05:37:05;101732.91;;;0.84;100.00
49030;BME280;43337;52.070;4.508;2024-03-08T05:39:32;101735.50;;;0.84;100.00
49030;BME280;43337;52.070;4.508;2024-03-08T05:41:57;101729.41;;;0.81;100.00
49030;BME280;43337;52.070;4.508;2024-03-08T05:44:23;101725.09;;;0.78;100.00
49030;BME280;43337;52.070;4.508;2024-03-08T05:46:48;101724.19;;;0.76;100.00
49030;BME280;43337;52.070;4.508;2024-03-08T05:49:14;101715.50;;;0.72;100.00
49030;BME280;43337;52.070;4.508;2024-03-08T05:51:40;101731.13;;;0.77;100.00
49030;BME280;43337;52.070;4.508;2024-03-08T05:54:11;101719.81;;;0.72;100.00
49030;BME280;43337;52.070;4.508;2024-03-08T05:56:37;101731.09;;;0.76;100.00
49030;BME280;43337;52.070;4.508;2024-03-08T05:59:03;101699.84;;;0.63;100.00
49030;BME280;43337;52.070;4.508;2024-03-08T06:01:28;101718.94;;;0.70;100.00
49030;BME280;43337;52.070;4.508;2024-03-08T06:03:55;101717.22;;;0.72;100.00
49030;BME280;43337;52.070;4.508;2024-03-08T06:06:24;101705.94;;;0.68;100.00
49030;BME280;43337;52.070;4.508;2024-03-08T06:08:50;101712.91;;;0.69;100.00
49030;BME280;43337;52.070;4.508;2024-03-08T06:11:17;101702.50;;;0.68;100.00
49030;BME280;43337;52.070;4.508;2024-03-08T06:13:43;101711.13;;;0.67;100.00
49030;BME280;43337;52.070;4.508;2024-03-08T06:16:08;101698.97;;;0.63;100.00
49030;BME280;43337;52.070;4.508;2024-03-08T06:18:34;101700.72;;;0.64;100.00
49030;BME280;43337;52.070;4.508;2024-03-08T06:21:04;101701.59;;;0.64;100.00
49030;BME280;43337;52.070;4.508;2024-03-08T06:23:34;101700.72;;;0.62;100.00
49030;BME280;43337;52.070;4.508;2024-03-08T06:26:09;101711.13;;;0.67;100.00
49030;BME280;43337;52.070;4.508;2024-03-08T06:28:35;101704.22;;;0.67;100.00
49030;BME280;43337;52.070;4.508;2024-03-08T06:31:02;101702.44;;;0.63;100.00
49030;BME280;43337;52.070;4.508;2024-03-08T06:33:28;101710.25;;;0.66;100.00
49030;BME280;43337;52.070;4.508;2024-03-08T06:35:54;101696.44;;;0.67;100.00
49030;BME280;43337;52.070;4.508;2024-03-08T06:38:26;101701.63;;;0.69;100.00
49030;BME280;43337;52.070;4.508;2024-03-08T06:40:51;101691.25;;;0.69;100.00
49030;BME280;43337;52.070;4.508;2024-03-08T06:43:17;101693.91;;;0.70;100.00
49030;BME280;43337;52.070;4.508;2024-03-08T06:45:46;101667.03;;;0.62;100.00
49030;BME280;43337;52.070;4.508;2024-03-08T06:48:17;101687.03;;;0.74;100.00
49030;BME280;43337;52.070;4.508;2024-03-08T06:50:47;101684.44;;;0.74;100.00
49030;BME280;43337;52.070;4.508;2024-03-08T06:53:13;101679.28;;;0.77;100.00
49030;BME280;43337;52.070;4.508;2024-03-08T06:55:38;101673.25;;;0.80;100.00
49030;BME280;43337;52.070;4.508;2024-03-08T06:58:04;101684.56;;;0.86;100.00
49030;BME280;43337;52.070;4.508;2024-03-08T07:00:29;101677.69;;;0.90;100.00
49030;BME280;43337;52.070;4.508;2024-03-08T07:02:56;101667.31;;;0.91;100.00
49030;BME280;43337;52.070;4.508;2024-03-08T07:05:22;101669.97;;;0.96;100.00
49030;BME280;43337;52.070;4.508;2024-03-08T07:07:49;101673.50;;;1.01;100.00
49030;BME280;43337;52.070;4.508;2024-03-08T07:10:16;101668.34;;;1.06;100.00
49030;BME280;43337;52.070;4.508;2024-03-08T07:12:42;101666.66;;;1.11;100.00
49030;BME280;43337;52.070;4.508;2024-03-08T07:15:08;101659.78;;;1.14;100.00
49030;BME280;43337;52.070;4.508;2024-03-08T07:17:38;101672.81;;;1.22;100.00
49030;BME280;43337;52.070;4.508;2024-03-08T07:20:05;101659.03;;;1.25;100.00
49030;BME280;43337;52.070;4.508;2024-03-08T07:22:36;101661.69;;;1.32;100.00
49030;BME280;43337;52.070;4.508;2024-03-08T07:25:02;101667.81;;;1.42;100.00
49030;BME280;43337;52.070;4.508;2024-03-08T07:27:47;101663.53;;;1.47;100.00
49030;BME280;43337;52.070;4.508;2024-03-08T07:30:12;101664.47;;;1.55;100.00
49030;BME280;43337;52.070;4.508;2024-03-08T07:32:38;101661.03;;;1.61;100.00
49030;BME280;43337;52.070;4.508;2024-03-08T07:35:04;101655.88;;;1.62;100.00
49030;BME280;43337;52.070;4.508;2024-03-08T07:37:30;101652.47;;;1.71;100.00
49030;BME280;43337;52.070;4.508;2024-03-08T07:39:56;101656.81;;;1.77;100.00
49030;BME280;43337;52.070;4.508;2024-03-08T07:42:23;101644.72;;;1.80;100.00
49030;BME280;43337;52.070;4.508;2024-03-08T07:44:48;101647.38;;;1.88;100.00
49030;BME280;43337;52.070;4.508;2024-03-08T07:47:15;101641.34;;;1.90;100.00
49030;BME280;43337;52.070;4.508;2024-03-08T07:49:42;101641.38;;;2.00;100.00
49030;BME280;43337;52.070;4.508;2024-03-08T07:52:09;101634.47;;;2.03;100.00
49030;BME280;43337;52.070;4.508;2024-03-08T07:54:35;101635.38;;;2.10;100.00
49030;BME280;43337;52.070;4.508;2024-03-08T07:57:00;101640.63;;;2.17;100.00
49030;BME280;43337;52.070;4.508;2024-03-08T07:59:28;101633.72;;;2.23;100.00
49030;BME280;43337;52.070;4.508;2024-03-08T08:01:53;101633.72;;;2.26;100.00
49030;BME280;43337;52.070;4.508;2024-03-08T08:04:18;101629.44;;;2.32;100.00
49030;BME280;43337;52.070;4.508;2024-03-08T08:06:49;101635.53;;;2.36;100.00
49030;BME280;43337;52.070;4.508;2024-03-08T08:09:16;101634.69;;;2.43;100.00
49030;BME280;43337;52.070;4.508;2024-03-08T08:11:47;101624.31;;;2.51;100.00
49030;BME280;43337;52.070;4.508;2024-03-08T08:14:12;101627.81;;;2.59;100.00
49030;BME280;43337;52.070;4.508;2024-03-08T08:16:38;101632.16;;;2.66;100.00
49030;BME280;43337;52.070;4.508;2024-03-08T08:19:06;101615.69;;;2.72;100.00
49030;BME280;43337;52.070;4.508;2024-03-08T08:21:35;101610.53;;;2.79;100.00
49030;BME280;43337;52.070;4.508;2024-03-08T08:24:04;101617.47;;;2.86;100.00
49030;BME280;43337;52.070;4.508;2024-03-08T08:26:29;101615.75;;;2.94;100.00
49030;BME280;43337;52.070;4.508;2024-03-08T08:28:55;101617.47;;;3.03;100.00
49030;BME280;43337;52.070;4.508;2024-03-08T08:31:20;101605.38;;;3.13;100.00
49030;BME280;43337;52.070;4.508;2024-03-08T08:33:56;101607.09;;;3.22;100.00
49030;BME280;43337;52.070;4.508;2024-03-08T08:36:25;101593.22;;;3.30;100.00
49030;BME280;43337;52.070;4.508;2024-03-08T08:38:51;101590.59;;;3.38;100.00
49030;BME280;43337;52.070;4.508;2024-03-08T08:41:19;101589.75;;;3.47;100.00
49030;BME280;43337;52.070;4.508;2024-03-08T08:43:47;101579.31;;;3.50;100.00
49030;BME280;43337;52.070;4.508;2024-03-08T08:46:17;101581.94;;;3.51;100.00
49030;BME280;43337;52.070;4.508;2024-03-08T08:48:42;101584.53;;;3.54;100.00
49030;BME280;43337;52.070;4.508;2024-03-08T08:51:11;101564.56;;;3.47;100.00
49030;BME280;43337;52.070;4.508;2024-03-08T08:53:41;101562.84;;;3.51;100.00
49030;BME280;43337;52.070;4.508;2024-03-08T08:56:11;101566.28;;;3.60;100.00
49030;BME280;43337;52.070;4.508;2024-03-08T08:58:41;101571.47;;;3.68;100.00
49030;BME280;43337;52.070;4.508;2024-03-08T09:01:07;101564.53;;;3.70;100.00
49030;BME280;43337;52.070;4.508;2024-03-08T09:03:33;101564.50;;;3.79;100.00
49030;BME280;43337;52.070;4.508;2024-03-08T09:06:00;101547.97;;;3.83;100.00
49030;BME280;43337;52.070;4.508;2024-03-08T09:08:27;101545.38;;;3.86;100.00
49030;BME280;43337;52.070;4.508;2024-03-08T09:10:53;101544.50;;;3.92;100.00
49030;BME280;43337;52.070;4.508;2024-03-08T09:13:19;101552.22;;;4.07;100.00
49030;BME280;43337;52.070;4.508;2024-03-08T09:15:44;101552.19;;;4.15;100.00
49030;BME280;43337;52.070;4.508;2024-03-08T09:18:10;101541.75;;;4.23;100.00
49030;BME280;43337;52.070;4.508;2024-03-08T09:20:36;101541.69;;;4.33;100.00
49030;BME280;43337;52.070;4.508;2024-03-08T09:23:02;101532.06;;;4.41;100.00
49030;BME280;43337;52.070;4.508;2024-03-08T09:25:29;101527.69;;;4.48;100.00
49030;BME280;43337;52.070;4.508;2024-03-08T09:27:54;101529.38;;;4.58;100.00
49030;BME280;43337;52.070;4.508;2024-03-08T09:30:20;101542.38;;;4.66;100.00
49030;BME280;43337;52.070;4.508;2024-03-08T09:32:46;101534.47;;;4.75;100.00
49030;BME280;43337;52.070;4.508;2024-03-08T09:35:12;101518.78;;;4.81;100.00
49030;BME280;43337;52.070;4.508;2024-03-08T09:37:37;101509.16;;;4.89;100.00
49030;BME280;43337;52.070;4.508;2024-03-08T09:40:03;101495.22;;;4.90;100.00
49030;BME280;43337;52.070;4.508;2024-03-08T09:42:37;101490.75;;;5.03;100.00
49030;BME280;43337;52.070;4.508;2024-03-08T09:45:08;101494.16;;;5.13;100.00
49030;BME280;43337;52.070;4.508;2024-03-08T09:47:37;101486.22;;;5.24;100.00
49030;BME280;43337;52.070;4.508;2024-03-08T09:50:06;101468.81;;;5.24;100.00
49030;BME280;43337;52.070;4.508;2024-03-08T09:52:35;101466.97;;;5.35;100.00
49030;BME280;43337;52.070;4.508;2024-03-08T09:55:04;101474.69;;;5.42;100.00
49030;BME280;43337;52.070;4.508;2024-03-08T09:57:32;101458.94;;;5.51;100.00
49030;BME280;43337;52.070;4.508;2024-03-08T09:59:58;101456.22;;;5.60;100.00
49030;BME280;43337;52.070;4.508;2024-03-08T10:02:24;101442.19;;;5.67;100.00
49030;BME280;43337;52.070;4.508;2024-03-08T10:04:51;101435.19;;;5.71;100.00
49030;BME280;43337;52.070;4.508;2024-03-08T10:07:18;101443.78;;;5.80;100.00
49030;BME280;43337;52.070;4.508;2024-03-08T10:09:44;101432.44;;;5.80;100.00
49030;BME280;43337;52.070;4.508;2024-03-08T10:12:15;101413.25;;;5.82;100.00
49030;BME280;43337;52.070;4.508;2024-03-08T10:14:41;101425.28;;;5.97;100.00
49030;BME280;43337;52.070;4.508;2024-03-08T10:17:07;101418.25;;;6.02;100.00
49030;BME280;43337;52.070;4.508;2024-03-08T10:19:33;101398.31;;;5.97;100.00
49030;BME280;43337;52.070;4.508;2024-03-08T10:21:59;101408.41;;;6.18;100.00
49030;BME280;43337;52.070;4.508;2024-03-08T10:24:25;101398.78;;;6.22;100.00
49030;BME280;43337;52.070;4.508;2024-03-08T10:26:58;101396.91;;;6.30;100.00
49030;BME280;43337;52.070;4.508;2024-03-08T10:29:24;101382.97;;;6.29;100.00
49030;BME280;43337;52.070;4.508;2024-03-08T10:31:50;101386.16;;;6.48;100.00
49030;BME280;43337;52.070;4.508;2024-03-08T10:34:16;101377.41;;;6.51;100.00
49030;BME280;43337;52.070;4.508;2024-03-08T10:36:42;101381.41;;;6.70;100.00
49030;BME280;43337;52.070;4.508;2024-03-08T10:39:20;101375.19;;;6.76;100.00
49030;BME280;43337;52.070;4.508;2024-03-08T10:41:51;101372.56;;;6.77;100.00
49030;BME280;43337;52.070;4.508;2024-03-08T10:47:19;101353.97;;;6.93;100.00
49030;BME280;43337;52.070;4.508;2024-03-08T10:52:29;101343.00;;;7.17;100.00
49030;BME280;43337;52.070;4.508;2024-03-08T10:54:56;101341.13;;;7.24;100.00
49030;BME280;43337;52.070;4.508;2024-03-08T10:57:22;101349.63;;;7.35;100.00
49030;BME280;43337;52.070;4.508;2024-03-08T10:59:49;101318.91;;;7.42;100.00
49030;BME280;43337;52.070;4.508;2024-03-08T11:02:16;101328.34;;;7.50;100.00
49030;BME280;43337;52.070;4.508;2024-03-08T11:04:49;101327.31;;;7.57;100.00
49030;BME280;43337;52.070;4.508;2024-03-08T11:07:16;101307.00;;;7.67;100.00
49030;BME280;43337;52.070;4.508;2024-03-08T11:09:47;101296.31;;;7.76;100.00
49030;BME280;43337;52.070;4.508;2024-03-08T11:12:28;101290.09;;;7.80;100.00
49030;BME280;43337;52.070;4.508;2024-03-08T11:14:55;101298.59;;;7.90;100.00
49030;BME280;43337;52.070;4.508;2024-03-08T11:17:26;101269.94;;;7.84;100.00
49030;BME280;43337;52.070;4.508;2024-03-08T11:20:12;101281.69;;;8.03;100.00
49030;BME280;43337;52.070;4.508;2024-03-08T11:22:42;101282.41;;;8.08;100.00
49030;BME280;43337;52.070;4.508;2024-03-08T11:25:30;101276.84;;;8.21;100.00
49030;BME280;43337;52.070;4.508;2024-03-08T11:28:15;101267.81;;;8.32;100.00
49030;BME280;43337;52.070;4.508;2024-03-08T11:30:44;101273.63;;;8.45;100.00
49030;BME280;43337;52.070;4.508;2024-03-08T11:33:12;101267.28;;;8.54;100.00
49030;BME280;43337;52.070;4.508;2024-03-08T11:35:38;101248.91;;;8.54;100.00
49030;BME280;43337;52.070;4.508;2024-03-08T11:38:04;101238.22;;;8.60;100.00
49030;BME280;43337;52.070;4.508;2024-03-08T11:40:29;101243.34;;;8.65;100.00
49030;BME280;43337;52.070;4.508;2024-03-08T11:42:55;101250.13;;;8.72;100.00
49030;BME280;43337;52.070;4.508;2024-03-08T11:45:21;101230.88;;;8.73;100.00
49030;BME280;43337;52.070;4.508;2024-03-08T11:47:47;101247.94;;;8.88;100.00
49030;BME280;43337;52.070;4.508;2024-03-08T11:50:13;101234.56;;;8.97;100.00
49030;BME280;43337;52.070;4.508;2024-03-08T11:52:39;101207.59;;;8.92;100.00
49030;BME280;43337;52.070;4.508;2024-03-08T11:55:05;101236.19;;;9.01;100.00
49030;BME280;43337;52.070;4.508;2024-03-08T11:57:31;101226.53;;;9.01;100.00
49030;BME280;43337;52.070;4.508;2024-03-08T11:59:57;101223.75;;;9.08;100.00
49030;BME280;43337;52.070;4.508;2024-03-08T12:02:24;101205.91;;;9.17;100.00
49030;BME280;43337;52.070;4.508;2024-03-08T12:04:56;101215.16;;;9.31;100.00
49030;BME280;43337;52.070;4.508;2024-03-08T12:07:22;101219.25;;;9.39;100.00
49030;BME280;43337;52.070;4.508;2024-03-08T12:10:14;101228.66;;;9.46;94.04
49030;BME280;43337;52.070;4.508;2024-03-08T12:12:46;101211.22;;;9.44;97.62
49030;BME280;43337;52.070;4.508;2024-03-08T12:15:13;101208.91;;;9.35;100.00
49030;BME280;43337;52.070;4.508;2024-03-08T12:17:39;101211.31;;;9.41;100.00
49030;BME280;43337;52.070;4.508;2024-03-08T12:20:17;101200.00;;;9.39;95.11
49030;BME280;43337;52.070;4.508;2024-03-08T12:22:44;101200.72;;;9.44;100.00
49030;BME280;43337;52.070;4.508;2024-03-08T12:25:12;101190.03;;;9.48;100.00
49030;BME280;43337;52.070;4.508;2024-03-08T12:27:39;101183.75;;;9.54;100.00
49030;BME280;43337;52.070;4.508;2024-03-08T12:30:22;101190.53;;;9.61;98.85
49030;BME280;43337;52.070;4.508;2024-03-08T12:33:00;101186.16;;;9.60;100.00
49030;BME280;43337;52.070;4.508;2024-03-08T12:35:27;101181.50;;;9.68;100.00
49030;BME280;43337;52.070;4.508;2024-03-08T12:37:55;101184.25;;;9.65;99.34
49030;BME280;43337;52.070;4.508;2024-03-08T12:40:31;101169.75;;;9.53;95.32
49030;BME280;43337;52.070;4.508;2024-03-08T12:42:58;101166.13;;;9.56;97.65
49030;BME280;43337;52.070;4.508;2024-03-08T12:45:24;101167.91;;;9.56;99.61
49030;BME280;43337;52.070;4.508;2024-03-08T12:47:53;101160.13;;;9.52;100.00
49030;BME280;43337;52.070;4.508;2024-03-08T12:50:23;101155.69;;;9.54;100.00
49030;BME280;43337;52.070;4.508;2024-03-08T12:52:50;101154.84;;;9.54;100.00
49030;BME280;43337;52.070;4.508;2024-03-08T12:55:16;101151.19;;;9.58;100.00